createdAt,value
2018-06-04T00:00:43.140Z,999.13
2018-06-04T00:01:43.146Z,999.08
2018-06-04T00:03:04.158Z,999.07
2018-06-04T00:03:43.153Z,999.10
2018-06-04T00:04:43.158Z,999.08
2018-06-04T00:05:43.160Z,999.02
2018-06-04T00:06:43.160Z,999.03
2018-06-04T00:07:43.164Z,999.02
2018-06-04T00:09:04.212Z,999.03
2018-06-04T00:09:43.168Z,999.01
2018-06-04T00:10:43.173Z,999.06
2018-06-04T00:11:43.173Z,999.02
2018-06-04T00:12:43.177Z,999.02
2018-06-04T00:13:43.178Z,999.01
2018-06-04T00:15:04.193Z,999.03
2018-06-04T00:15:43.185Z,998.96
2018-06-04T00:16:43.186Z,999.01
2018-06-04T00:17:43.192Z,998.98
2018-06-04T00:18:43.192Z,998.99
2018-06-04T00:19:43.197Z,998.99
2018-06-04T00:21:04.210Z,998.91
2018-06-04T00:21:43.223Z,998.91
2018-06-04T00:22:43.201Z,998.92
2018-06-04T00:23:43.205Z,998.91
2018-06-04T00:24:43.205Z,998.87
2018-06-04T00:25:43.217Z,998.92
2018-06-04T00:27:04.221Z,998.89
2018-06-04T00:27:43.218Z,998.90
2018-06-04T00:28:43.255Z,998.93
2018-06-04T00:29:43.222Z,998.93
2018-06-04T00:30:43.226Z,998.93
2018-06-04T00:31:43.225Z,998.95
2018-06-04T00:33:04.240Z,998.90
2018-06-04T00:33:43.231Z,998.87
2018-06-04T00:34:43.274Z,998.86
2018-06-04T00:35:43.238Z,998.86
2018-06-04T00:36:43.243Z,998.82
2018-06-04T00:37:43.249Z,998.80
2018-06-04T00:39:04.313Z,998.80
2018-06-04T00:39:43.247Z,998.79
2018-06-04T00:40:43.248Z,998.81
2018-06-04T00:41:43.253Z,998.77
2018-06-04T00:42:43.260Z,998.76
2018-06-04T00:43:43.257Z,998.77
2018-06-04T00:45:04.269Z,998.78
2018-06-04T00:45:43.265Z,998.75
2018-06-04T00:46:43.262Z,998.75
2018-06-04T00:47:43.270Z,998.73
2018-06-04T00:48:43.270Z,998.73
2018-06-04T00:49:43.270Z,998.73
2018-06-04T00:51:04.283Z,998.68
2018-06-04T00:51:43.276Z,998.68
2018-06-04T00:52:43.283Z,998.70
2018-06-04T00:53:43.288Z,998.66
2018-06-04T00:54:43.285Z,998.66
2018-06-04T00:55:43.292Z,998.67
2018-06-04T00:57:04.301Z,998.63
2018-06-04T00:57:43.298Z,998.65
2018-06-04T00:58:43.355Z,998.64
2018-06-04T00:59:43.306Z,998.67
2018-06-04T01:00:43.303Z,998.66
2018-06-04T01:01:43.305Z,998.61
2018-06-04T01:03:04.320Z,998.67
2018-06-04T01:03:43.311Z,998.66
2018-06-04T01:04:43.310Z,998.67
2018-06-04T01:05:43.315Z,998.69
2018-06-04T01:06:43.316Z,998.66
2018-06-04T01:07:43.322Z,998.69
2018-06-04T01:09:04.414Z,998.66
2018-06-04T01:09:43.931Z,998.68
2018-06-04T01:10:43.335Z,998.66
2018-06-04T01:11:43.331Z,998.68
2018-06-04T01:12:43.331Z,998.66
2018-06-04T01:13:43.328Z,998.64
2018-06-04T01:15:04.350Z,998.65
2018-06-04T01:15:43.337Z,998.61
2018-06-04T01:16:43.343Z,998.58
2018-06-04T01:17:43.343Z,998.61
2018-06-04T01:18:43.341Z,998.60
2018-06-04T01:19:43.346Z,998.57
2018-06-04T01:21:04.363Z,998.61
2018-06-04T01:21:43.352Z,998.60
2018-06-04T01:22:43.353Z,998.61
2018-06-04T01:23:43.358Z,998.61
2018-06-04T01:24:43.359Z,998.64
2018-06-04T01:25:43.362Z,998.62
2018-06-04T01:27:04.379Z,998.62
2018-06-04T01:27:43.367Z,998.65
2018-06-04T01:28:43.369Z,998.66
2018-06-04T01:29:43.371Z,998.64
2018-06-04T01:30:43.375Z,998.66
2018-06-04T01:31:43.383Z,998.65
2018-06-04T01:33:04.385Z,998.61
2018-06-04T01:33:43.387Z,998.61
2018-06-04T01:34:43.381Z,998.64
2018-06-04T01:35:43.382Z,998.59
2018-06-04T01:36:43.384Z,998.61
2018-06-04T01:37:43.388Z,998.59
2018-06-04T01:39:04.419Z,998.61
2018-06-04T01:39:43.398Z,998.62
2018-06-04T01:40:44.336Z,998.58
2018-06-04T01:41:43.398Z,998.58
2018-06-04T01:42:43.406Z,998.55
2018-06-04T01:43:43.400Z,998.54
2018-06-04T01:45:04.411Z,998.52
2018-06-04T01:45:43.409Z,998.52
2018-06-04T01:46:43.412Z,998.52
2018-06-04T01:47:43.417Z,998.49
2018-06-04T01:48:43.425Z,998.52
2018-06-04T01:49:43.418Z,998.50
2018-06-04T01:51:04.462Z,998.51
2018-06-04T01:51:43.419Z,998.48
2018-06-04T01:52:43.420Z,998.53
2018-06-04T01:53:43.434Z,998.57
2018-06-04T01:54:43.427Z,998.53
2018-06-04T01:55:43.429Z,998.52
2018-06-04T01:57:04.438Z,998.51
2018-06-04T01:57:43.433Z,998.52
2018-06-04T01:58:43.436Z,998.53
2018-06-04T01:59:43.433Z,998.48
2018-06-04T02:00:43.439Z,998.50
2018-06-04T02:01:43.453Z,998.47
2018-06-04T02:03:04.449Z,998.48
2018-06-04T02:03:43.443Z,998.46
2018-06-04T02:04:43.453Z,998.47
2018-06-04T02:05:43.449Z,998.48
2018-06-04T02:06:43.454Z,998.47
2018-06-04T02:07:43.453Z,998.49
2018-06-04T02:09:04.517Z,998.50
2018-06-04T02:09:43.456Z,998.48
2018-06-04T02:10:43.456Z,998.44
2018-06-04T02:11:43.462Z,998.46
2018-06-04T02:12:43.463Z,998.42
2018-06-04T02:13:43.460Z,998.43
2018-06-04T02:15:04.475Z,998.43
2018-06-04T02:15:43.485Z,998.42
2018-06-04T02:16:43.477Z,998.46
2018-06-04T02:17:43.479Z,998.44
2018-06-04T02:18:43.474Z,998.43
2018-06-04T02:19:43.475Z,998.44
2018-06-04T02:21:04.491Z,998.41
2018-06-04T02:21:43.480Z,998.42
2018-06-04T02:22:43.500Z,998.41
2018-06-04T02:23:43.485Z,998.37
2018-06-04T02:24:43.491Z,998.38
2018-06-04T02:25:43.501Z,998.38
2018-06-04T02:27:04.501Z,998.35
2018-06-04T02:27:43.493Z,998.31
2018-06-04T02:28:43.497Z,998.32
2018-06-04T02:29:43.499Z,998.31
2018-06-04T02:30:43.500Z,998.28
2018-06-04T02:31:43.506Z,998.28
2018-06-04T02:33:04.511Z,998.23
2018-06-04T02:33:43.520Z,998.24
2018-06-04T02:34:43.503Z,998.25
2018-06-04T02:35:43.507Z,998.25
2018-06-04T02:36:43.512Z,998.26
2018-06-04T02:37:43.520Z,998.28
2018-06-04T02:39:04.621Z,998.26
2018-06-04T02:39:43.520Z,998.24
2018-06-04T02:40:43.521Z,998.29
2018-06-04T02:41:43.523Z,998.26
2018-06-04T02:42:43.527Z,998.27
2018-06-04T02:43:43.526Z,998.28
2018-06-04T02:45:04.539Z,998.26
2018-06-04T02:45:43.539Z,998.29
2018-06-04T02:46:43.531Z,998.31
2018-06-04T02:47:43.542Z,998.26
2018-06-04T02:48:43.545Z,998.26
2018-06-04T02:49:43.542Z,998.25
2018-06-04T02:51:04.549Z,998.26
2018-06-04T02:51:43.547Z,998.25
2018-06-04T02:52:43.544Z,998.29
2018-06-04T02:53:43.593Z,998.30
2018-06-04T02:54:43.546Z,998.27
2018-06-04T02:55:43.546Z,998.29
2018-06-04T02:57:04.561Z,998.30
2018-06-04T02:57:43.551Z,998.30
2018-06-04T02:58:43.684Z,998.32
2018-06-04T02:59:43.558Z,998.30
2018-06-04T03:00:43.569Z,998.31
2018-06-04T03:01:43.559Z,998.33
2018-06-04T03:03:04.566Z,998.34
2018-06-04T03:03:43.561Z,998.31
2018-06-04T03:04:43.566Z,998.30
2018-06-04T03:05:43.566Z,998.27
2018-06-04T03:06:43.566Z,998.29
2018-06-04T03:07:43.572Z,998.25
2018-06-04T03:09:04.623Z,998.29
2018-06-04T03:09:43.576Z,998.31
2018-06-04T03:10:43.579Z,998.29
2018-06-04T03:11:43.578Z,998.28
2018-06-04T03:12:43.575Z,998.28
2018-06-04T03:13:43.580Z,998.26
2018-06-04T03:15:04.599Z,998.27
2018-06-04T03:15:43.585Z,998.29
2018-06-04T03:16:43.587Z,998.26
2018-06-04T03:17:43.586Z,998.25
2018-06-04T03:18:43.597Z,998.26
2018-06-04T03:19:43.591Z,998.24
2018-06-04T03:21:04.602Z,998.22
2018-06-04T03:21:43.593Z,998.24
2018-06-04T03:22:43.592Z,998.23
2018-06-04T03:23:43.595Z,998.23
2018-06-04T03:24:43.600Z,998.22
2018-06-04T03:25:43.600Z,998.19
2018-06-04T03:27:04.606Z,998.19
2018-06-04T03:27:43.609Z,998.23
2018-06-04T03:28:43.660Z,998.21
2018-06-04T03:29:43.610Z,998.18
2018-06-04T03:30:43.610Z,998.20
2018-06-04T03:31:43.616Z,998.21
2018-06-04T03:33:04.624Z,998.18
2018-06-04T03:33:43.613Z,998.21
2018-06-04T03:34:43.620Z,998.23
2018-06-04T03:35:43.618Z,998.18
2018-06-04T03:36:43.617Z,998.21
2018-06-04T03:37:43.621Z,998.19
2018-06-04T03:39:04.720Z,998.16
2018-06-04T03:39:43.624Z,998.20
2018-06-04T03:40:43.627Z,998.18
2018-06-04T03:41:43.626Z,998.19
2018-06-04T03:42:43.628Z,998.21
2018-06-04T03:43:43.880Z,998.21
2018-06-04T03:45:04.642Z,998.23
2018-06-04T03:45:43.632Z,998.23
2018-06-04T03:46:43.638Z,998.26
2018-06-04T03:47:43.636Z,998.23
2018-06-04T03:48:43.647Z,998.25
2018-06-04T03:49:43.648Z,998.26
2018-06-04T03:51:04.654Z,998.22
2018-06-04T03:51:43.642Z,998.25
2018-06-04T03:52:43.643Z,998.23
2018-06-04T03:53:43.648Z,998.18
2018-06-04T03:54:43.649Z,998.20
2018-06-04T03:55:43.647Z,998.20
2018-06-04T03:57:04.661Z,998.22
2018-06-04T03:57:43.652Z,998.19
2018-06-04T03:58:43.657Z,998.19
2018-06-04T03:59:43.657Z,998.19
2018-06-04T04:00:43.660Z,998.22
2018-06-04T04:01:43.670Z,998.20
2018-06-04T04:03:04.672Z,998.20
2018-06-04T04:03:43.661Z,998.17
2018-06-04T04:04:43.667Z,998.17
2018-06-04T04:05:43.665Z,998.19
2018-06-04T04:06:43.671Z,998.19
2018-06-04T04:07:43.673Z,998.19
2018-06-04T04:09:04.720Z,998.15
2018-06-04T04:09:43.684Z,998.14
2018-06-04T04:10:43.697Z,998.13
2018-06-04T04:11:43.675Z,998.14
2018-06-04T04:12:43.680Z,998.12
2018-06-04T04:13:43.681Z,998.12
2018-06-04T04:15:04.689Z,998.09
2018-06-04T04:15:43.690Z,998.13
2018-06-04T04:16:43.685Z,998.07
2018-06-04T04:17:43.690Z,998.13
2018-06-04T04:18:43.689Z,998.07
2018-06-04T04:19:43.691Z,998.13
2018-06-04T04:21:04.705Z,998.11
2018-06-04T04:21:43.699Z,998.17
2018-06-04T04:22:43.700Z,998.18
2018-06-04T04:23:43.699Z,998.20
2018-06-04T04:24:43.702Z,998.18
2018-06-04T04:25:43.706Z,998.17
2018-06-04T04:27:04.712Z,998.20
2018-06-04T04:27:43.707Z,998.19
2018-06-04T04:28:43.712Z,998.19
2018-06-04T04:29:43.714Z,998.20
2018-06-04T04:30:43.716Z,998.23
2018-06-04T04:31:43.711Z,998.23
2018-06-04T04:33:04.731Z,998.20
2018-06-04T04:33:43.721Z,998.21
2018-06-04T04:34:43.727Z,998.23
2018-06-04T04:35:43.725Z,998.22
2018-06-04T04:36:43.726Z,998.22
2018-06-04T04:37:43.736Z,998.22
2018-06-04T04:39:04.831Z,998.20
2018-06-04T04:39:43.730Z,998.21
2018-06-04T04:40:43.733Z,998.18
2018-06-04T04:41:43.745Z,998.20
2018-06-04T04:42:43.737Z,998.19
2018-06-04T04:43:43.739Z,998.23
2018-06-04T04:45:04.752Z,998.24
2018-06-04T04:45:44.607Z,998.24
2018-06-04T04:46:43.788Z,998.23
2018-06-04T04:47:43.782Z,998.26
2018-06-04T04:48:43.749Z,998.26
2018-06-04T04:49:43.746Z,998.25
2018-06-04T04:51:05.580Z,998.30
2018-06-04T04:51:43.944Z,998.25
2018-06-04T04:52:43.787Z,998.30
2018-06-04T04:53:43.764Z,998.29
2018-06-04T04:54:43.764Z,998.29
2018-06-04T04:55:43.764Z,998.27
2018-06-04T04:57:04.780Z,998.28
2018-06-04T04:57:43.772Z,998.28
2018-06-04T04:58:43.770Z,998.25
2018-06-04T04:59:43.797Z,998.25
2018-06-04T05:00:43.785Z,998.25
2018-06-04T05:01:43.786Z,998.20
2018-06-04T05:03:04.790Z,998.20
2018-06-04T05:03:43.837Z,998.19
2018-06-04T05:04:43.792Z,998.22
2018-06-04T05:05:43.792Z,998.23
2018-06-04T05:06:43.791Z,998.19
2018-06-04T05:07:43.793Z,998.20
2018-06-04T05:09:04.921Z,998.20
2018-06-04T05:09:43.801Z,998.23
2018-06-04T05:10:43.798Z,998.18
2018-06-04T05:11:43.804Z,998.18
2018-06-04T05:12:43.810Z,998.18
2018-06-04T05:13:43.811Z,998.15
2018-06-04T05:15:04.828Z,998.18
2018-06-04T05:15:43.819Z,998.19
2018-06-04T05:16:43.821Z,998.18
2018-06-04T05:17:43.824Z,998.21
2018-06-04T05:18:43.834Z,998.18
2018-06-04T05:19:43.827Z,998.15
2018-06-04T05:21:04.846Z,998.19
2018-06-04T05:21:43.836Z,998.18
2018-06-04T05:22:43.840Z,998.17
2018-06-04T05:23:43.841Z,998.17
2018-06-04T05:24:43.848Z,998.15
2018-06-04T05:25:43.848Z,998.10
2018-06-04T05:27:05.133Z,998.14
2018-06-04T05:27:43.860Z,998.14
2018-06-04T05:28:43.859Z,998.14
2018-06-04T05:29:43.865Z,998.13
2018-06-04T05:30:43.870Z,998.11
2018-06-04T05:31:43.891Z,998.10
2018-06-04T05:33:04.886Z,998.12
2018-06-04T05:33:43.878Z,998.13
2018-06-04T05:34:43.883Z,998.14
2018-06-04T05:35:43.888Z,998.17
2018-06-04T05:36:43.889Z,998.11
2018-06-04T05:37:43.892Z,998.11
2018-06-04T05:39:04.922Z,998.11
2018-06-04T05:39:43.903Z,998.07
2018-06-04T05:40:43.904Z,998.08
2018-06-04T05:41:43.910Z,998.07
2018-06-04T05:42:43.918Z,998.08
2018-06-04T05:43:43.917Z,998.08
2018-06-04T05:45:04.934Z,998.09
2018-06-04T05:45:43.933Z,998.08
2018-06-04T05:46:43.936Z,998.09
2018-06-04T05:47:43.938Z,998.08
2018-06-04T05:48:43.940Z,998.06
2018-06-04T05:49:43.948Z,998.03
2018-06-04T05:51:04.961Z,998.02
2018-06-04T05:51:43.951Z,998.03
2018-06-04T05:52:43.956Z,998.05
2018-06-04T05:53:43.981Z,998.03
2018-06-04T05:54:43.965Z,998.06
2018-06-04T05:55:43.967Z,998.04
2018-06-04T05:57:04.985Z,998.04
2018-06-04T05:57:43.981Z,998.05
2018-06-04T05:58:44.068Z,998.06
2018-06-04T05:59:43.985Z,998.04
2018-06-04T06:00:43.995Z,998.06
2018-06-04T06:01:44.037Z,998.00
2018-06-04T06:03:05.008Z,998.00
2018-06-04T06:03:44.005Z,998.04
2018-06-04T06:04:44.009Z,998.07
2018-06-04T06:05:44.017Z,998.02
2018-06-04T06:06:44.024Z,998.06
2018-06-04T06:07:44.025Z,998.01
2018-06-04T06:09:05.127Z,998.00
2018-06-04T06:09:44.057Z,998.01
2018-06-04T06:10:44.037Z,997.99
2018-06-04T06:11:44.041Z,997.99
2018-06-04T06:12:44.063Z,997.94
2018-06-04T06:13:44.051Z,997.94
2018-06-04T06:15:05.085Z,997.93
2018-06-04T06:15:44.063Z,997.94
2018-06-04T06:16:44.065Z,997.95
2018-06-04T06:17:44.073Z,997.92
2018-06-04T06:18:44.073Z,997.90
2018-06-04T06:19:44.115Z,997.90
2018-06-04T06:21:05.099Z,997.85
2018-06-04T06:21:44.084Z,997.85
2018-06-04T06:22:44.095Z,997.90
2018-06-04T06:23:44.092Z,997.89
2018-06-04T06:24:44.100Z,997.89
2018-06-04T06:25:44.108Z,997.89
2018-06-04T06:27:05.122Z,997.84
2018-06-04T06:27:44.118Z,997.86
2018-06-04T06:28:44.805Z,997.83
2018-06-04T06:29:44.133Z,997.80
2018-06-04T06:30:44.133Z,997.81
2018-06-04T06:31:44.140Z,997.81
2018-06-04T06:33:05.152Z,997.77
2018-06-04T06:33:44.153Z,997.81
2018-06-04T06:34:44.149Z,997.83
2018-06-04T06:35:44.157Z,997.81
2018-06-04T06:36:44.164Z,997.81
2018-06-04T06:37:44.188Z,997.76
2018-06-04T06:39:05.234Z,997.76
2018-06-04T06:39:44.191Z,997.73
2018-06-04T06:40:44.178Z,997.71
2018-06-04T06:41:44.183Z,997.71
2018-06-04T06:42:44.194Z,997.67
2018-06-04T06:43:44.189Z,997.66
2018-06-04T06:45:05.207Z,997.68
2018-06-04T06:45:44.202Z,997.69
2018-06-04T06:46:44.203Z,997.66
2018-06-04T06:47:44.210Z,997.67
2018-06-04T06:48:44.229Z,997.67
2018-06-04T06:49:44.219Z,997.63
2018-06-04T06:51:05.397Z,997.62
2018-06-04T06:51:44.269Z,997.66
2018-06-04T06:52:44.276Z,997.64
2018-06-04T06:53:44.240Z,997.65
2018-06-04T06:54:44.243Z,997.64
2018-06-04T06:55:44.464Z,997.62
2018-06-04T06:57:05.280Z,997.63
2018-06-04T06:57:44.731Z,997.58
2018-06-04T06:58:44.371Z,997.58
2018-06-04T06:59:44.265Z,997.58
2018-06-04T07:00:44.268Z,997.59
2018-06-04T07:01:44.305Z,997.57
2018-06-04T07:03:05.293Z,997.62
2018-06-04T07:03:44.279Z,997.59
2018-06-04T07:04:44.301Z,997.63
2018-06-04T07:05:44.289Z,997.60
2018-06-04T07:06:44.293Z,997.62
2018-06-04T07:07:44.301Z,997.63
2018-06-04T07:09:05.325Z,997.62
2018-06-04T07:09:44.307Z,997.59
2018-06-04T07:10:44.329Z,997.57
2018-06-04T07:11:44.314Z,997.53
2018-06-04T07:12:44.377Z,997.54
2018-06-04T07:13:44.330Z,997.55
2018-06-04T07:15:05.339Z,997.55
2018-06-04T07:15:44.339Z,997.51
2018-06-04T07:16:44.338Z,997.50
2018-06-04T07:17:44.345Z,997.51
2018-06-04T07:18:44.362Z,997.52
2018-06-04T07:19:44.607Z,997.51
2018-06-04T07:21:05.375Z,997.51
2018-06-04T07:21:44.356Z,997.49
2018-06-04T07:22:44.361Z,997.49
2018-06-04T07:23:44.366Z,997.48
2018-06-04T07:24:44.371Z,997.47
2018-06-04T07:25:44.376Z,997.43
2018-06-04T07:27:05.389Z,997.43
2018-06-04T07:27:44.384Z,997.43
2018-06-04T07:28:44.471Z,997.48
2018-06-04T07:29:44.392Z,997.45
2018-06-04T07:30:44.397Z,997.44
2018-06-04T07:31:44.402Z,997.46
2018-06-04T07:33:05.419Z,997.39
2018-06-04T07:33:44.419Z,997.38
2018-06-04T07:34:44.429Z,997.37
2018-06-04T07:35:44.420Z,997.37
2018-06-04T07:36:44.468Z,997.35
2018-06-04T07:37:44.430Z,997.36
2018-06-04T07:39:05.534Z,997.34
2018-06-04T07:39:44.439Z,997.34
2018-06-04T07:40:44.451Z,997.33
2018-06-04T07:41:44.443Z,997.38
2018-06-04T07:42:44.447Z,997.34
2018-06-04T07:43:44.450Z,997.40
2018-06-04T07:45:05.468Z,997.34
2018-06-04T07:45:44.467Z,997.32
2018-06-04T07:46:44.465Z,997.34
2018-06-04T07:47:44.469Z,997.34
2018-06-04T07:48:44.482Z,997.32
2018-06-04T07:49:44.485Z,997.37
2018-06-04T07:51:05.490Z,997.35
2018-06-04T07:51:44.502Z,997.38
2018-06-04T07:52:44.489Z,997.35
2018-06-04T07:53:44.495Z,997.32
2018-06-04T07:54:44.499Z,997.33
2018-06-04T07:55:44.696Z,997.37
2018-06-04T07:57:05.872Z,997.32
2018-06-04T07:57:44.520Z,997.34
2018-06-04T07:58:44.518Z,997.34
2018-06-04T07:59:44.518Z,997.33
2018-06-04T08:00:44.531Z,997.30
2018-06-04T08:01:44.534Z,997.31
2018-06-04T08:03:05.555Z,997.27
2018-06-04T08:03:44.596Z,997.30
2018-06-04T08:04:44.541Z,997.29
2018-06-04T08:05:44.546Z,997.29
2018-06-04T08:06:44.552Z,997.29
2018-06-04T08:07:44.559Z,997.30
2018-06-04T08:09:05.743Z,997.31
2018-06-04T08:09:44.783Z,997.27
2018-06-04T08:10:44.757Z,997.29
2018-06-04T08:11:44.579Z,997.28
2018-06-04T08:12:44.580Z,997.25
2018-06-04T08:13:44.589Z,997.22
2018-06-04T08:15:05.599Z,997.20
2018-06-04T08:15:45.124Z,997.20
2018-06-04T08:16:47.321Z,997.22
2018-06-04T08:17:44.602Z,997.18
2018-06-04T08:18:44.608Z,997.15
2018-06-04T08:19:44.614Z,997.15
2018-06-04T08:21:05.633Z,997.15
2018-06-04T08:21:46.724Z,997.09
2018-06-04T08:22:45.513Z,997.11
2018-06-04T08:23:44.667Z,997.12
2018-06-04T08:24:44.632Z,997.11
2018-06-04T08:25:44.638Z,997.09
2018-06-04T08:27:05.654Z,997.11
2018-06-04T08:27:44.686Z,997.13
2018-06-04T08:28:44.677Z,997.15
2018-06-04T08:29:44.659Z,997.13
2018-06-04T08:30:44.661Z,997.13
2018-06-04T08:31:44.671Z,997.13
2018-06-04T08:33:05.682Z,997.14
2018-06-04T08:33:44.675Z,997.08
2018-06-04T08:34:44.682Z,997.10
2018-06-04T08:35:45.052Z,997.12
2018-06-04T08:36:45.558Z,997.12
2018-06-04T08:37:44.716Z,997.12
2018-06-04T08:39:06.126Z,997.12
2018-06-04T08:39:44.705Z,997.13
2018-06-04T08:40:44.714Z,997.09
2018-06-04T08:41:44.977Z,997.07
2018-06-04T08:42:44.984Z,997.08
2018-06-04T08:43:44.730Z,997.03
2018-06-04T08:45:05.757Z,997.00
2018-06-04T08:45:44.798Z,997.02
2018-06-04T08:46:44.758Z,997.04
2018-06-04T08:47:45.395Z,997.02
2018-06-04T08:48:44.766Z,997.05
2018-06-04T08:49:44.778Z,997.01
2018-06-04T08:51:05.809Z,997.03
2018-06-04T08:51:44.797Z,997.03
2018-06-04T08:52:44.796Z,997.03
2018-06-04T08:53:44.834Z,997.01
2018-06-04T08:54:44.825Z,996.96
2018-06-04T08:55:44.827Z,996.98
2018-06-04T08:57:05.852Z,996.97
2018-06-04T08:57:45.084Z,996.98
2018-06-04T08:58:44.842Z,996.93
2018-06-04T08:59:44.850Z,996.99
2018-06-04T09:00:44.855Z,996.96
2018-06-04T09:01:44.867Z,996.97
2018-06-04T09:03:06.057Z,997.00
2018-06-04T09:03:44.882Z,996.95
2018-06-04T09:04:44.887Z,996.94
2018-06-04T09:05:44.897Z,996.94
2018-06-04T09:06:44.898Z,996.98
2018-06-04T09:07:44.917Z,996.93
2018-06-04T09:09:06.185Z,996.94
2018-06-04T09:09:44.929Z,996.91
2018-06-04T09:10:44.936Z,996.88
2018-06-04T09:11:44.940Z,996.91
2018-06-04T09:12:44.950Z,996.88
2018-06-04T09:13:44.961Z,996.92
2018-06-04T09:15:05.977Z,996.87
2018-06-04T09:15:45.013Z,996.86
2018-06-04T09:16:44.987Z,996.89
2018-06-04T09:17:44.994Z,996.89
2018-06-04T09:18:45.051Z,996.88
2018-06-04T09:19:45.029Z,996.92
2018-06-04T09:21:06.039Z,996.86
2018-06-04T09:21:45.105Z,996.84
2018-06-04T09:22:45.845Z,996.83
2018-06-04T09:23:45.060Z,996.85
2018-06-04T09:24:45.481Z,996.83
2018-06-04T09:25:45.083Z,996.83
2018-06-04T09:27:06.106Z,996.77
2018-06-04T09:27:45.097Z,996.79
2018-06-04T09:28:45.118Z,996.80
2018-06-04T09:29:45.120Z,996.79
2018-06-04T09:30:45.125Z,996.74
2018-06-04T09:31:45.177Z,996.79
2018-06-04T09:33:06.167Z,996.84
2018-06-04T09:33:45.176Z,996.83
2018-06-04T09:34:45.181Z,996.83
2018-06-04T09:35:45.187Z,996.83
2018-06-04T09:36:45.202Z,996.80
2018-06-04T09:37:45.213Z,996.78
2018-06-04T09:39:06.360Z,996.80
2018-06-04T09:39:45.237Z,996.79
2018-06-04T09:40:45.253Z,996.80
2018-06-04T09:41:45.262Z,996.78
2018-06-04T09:42:45.286Z,996.79
2018-06-04T09:43:45.283Z,996.77
2018-06-04T09:45:06.307Z,996.78
2018-06-04T09:45:45.311Z,996.76
2018-06-04T09:46:45.332Z,996.77
2018-06-04T09:47:45.366Z,996.75
2018-06-04T09:48:45.386Z,996.75
2018-06-04T09:49:45.362Z,996.71
2018-06-04T09:51:06.386Z,996.74
2018-06-04T09:51:45.401Z,996.74
2018-06-04T09:52:45.528Z,996.75
2018-06-04T09:53:45.425Z,996.69
2018-06-04T09:54:45.447Z,996.72
2018-06-04T09:55:45.517Z,996.69
2018-06-04T09:57:06.460Z,996.67
2018-06-04T09:57:45.539Z,996.67
2018-06-04T09:58:45.498Z,996.72
2018-06-04T09:59:45.500Z,996.65
2018-06-04T10:00:45.583Z,996.66
2018-06-04T10:01:45.599Z,996.66
2018-06-04T10:03:06.532Z,996.67
2018-06-04T10:03:45.586Z,996.65
2018-06-04T10:04:45.619Z,996.66
2018-06-04T10:05:45.609Z,996.66
2018-06-04T10:06:45.591Z,996.63
2018-06-04T10:07:45.601Z,996.59
2018-06-04T10:09:06.610Z,996.60
2018-06-04T10:09:45.679Z,996.63
2018-06-04T10:10:45.687Z,996.59
2018-06-04T10:11:45.656Z,996.62
2018-06-04T10:12:45.667Z,996.61
2018-06-04T10:13:45.694Z,996.60
2018-06-04T10:15:06.731Z,996.61
2018-06-04T10:15:45.711Z,996.57
2018-06-04T10:16:45.701Z,996.58
2018-06-04T10:17:45.717Z,996.58
2018-06-04T10:18:45.728Z,996.55
2018-06-04T10:19:45.745Z,996.54
2018-06-04T10:21:06.799Z,996.53
2018-06-04T10:21:45.812Z,996.56
2018-06-04T10:22:45.783Z,996.53
2018-06-04T10:23:45.797Z,996.53
2018-06-04T10:24:45.815Z,996.53
2018-06-04T10:25:45.827Z,996.48
2018-06-04T10:27:06.863Z,996.48
2018-06-04T10:27:45.895Z,996.52
2018-06-04T10:28:45.909Z,996.47
2018-06-04T10:29:45.887Z,996.48
2018-06-04T10:30:45.907Z,996.52
2018-06-04T10:31:45.913Z,996.52
2018-06-04T10:33:06.948Z,996.49
2018-06-04T10:33:45.996Z,996.51
2018-06-04T10:34:45.960Z,996.45
2018-06-04T10:35:45.982Z,996.47
2018-06-04T10:36:45.990Z,996.45
2018-06-04T10:37:46.023Z,996.45
2018-06-04T10:39:07.123Z,996.47
2018-06-04T10:39:46.028Z,996.47
2018-06-04T10:40:46.063Z,996.49
2018-06-04T10:41:46.054Z,996.43
2018-06-04T10:42:46.073Z,996.49
2018-06-04T10:43:46.078Z,996.52
2018-06-04T10:45:07.103Z,996.52
2018-06-04T10:45:46.137Z,996.48
2018-06-04T10:46:46.271Z,996.50
2018-06-04T10:47:46.126Z,996.48
2018-06-04T10:48:46.142Z,996.44
2018-06-04T10:49:46.150Z,996.44
2018-06-04T10:51:07.173Z,996.41
2018-06-04T10:51:46.175Z,996.38
2018-06-04T10:52:46.201Z,996.37
2018-06-04T10:53:46.200Z,996.37
2018-06-04T10:54:46.639Z,996.36
2018-06-04T10:55:46.222Z,996.33
2018-06-04T10:57:07.900Z,996.35
2018-06-04T10:57:46.251Z,996.35
2018-06-04T10:58:46.308Z,996.29
2018-06-04T10:59:46.282Z,996.33
2018-06-04T11:00:46.292Z,996.32
2018-06-04T11:01:46.301Z,996.29
2018-06-04T11:03:07.329Z,996.22
2018-06-04T11:03:46.331Z,996.19
2018-06-04T11:04:46.350Z,996.21
2018-06-04T11:05:46.416Z,996.28
2018-06-04T11:06:46.370Z,996.24
2018-06-04T11:07:46.383Z,996.19
2018-06-04T11:09:07.477Z,996.21
2018-06-04T11:09:46.460Z,996.20
2018-06-04T11:10:46.444Z,996.17
2018-06-04T11:11:46.443Z,996.17
2018-06-04T11:12:46.492Z,996.14
2018-06-04T11:13:46.474Z,996.19
2018-06-04T11:15:07.602Z,996.12
2018-06-04T11:15:46.673Z,996.10
2018-06-04T11:16:46.514Z,996.07
2018-06-04T11:17:46.527Z,996.07
2018-06-04T11:18:47.472Z,996.06
2018-06-04T11:19:47.433Z,996.08
2018-06-04T11:21:07.599Z,996.08
2018-06-04T11:21:46.719Z,996.12
2018-06-04T11:22:46.838Z,996.13
2018-06-04T11:23:46.628Z,996.11
2018-06-04T11:24:47.213Z,996.07
2018-06-04T11:25:46.709Z,996.07
2018-06-04T11:27:07.693Z,996.08
2018-06-04T11:27:46.958Z,996.09
2018-06-04T11:28:46.716Z,996.08
2018-06-04T11:29:46.736Z,996.08
2018-06-04T11:30:46.773Z,996.10
2018-06-04T11:31:46.986Z,996.05
2018-06-04T11:33:08.413Z,996.07
2018-06-04T11:33:50.427Z,996.08
2018-06-04T11:34:46.824Z,996.12
2018-06-04T11:35:46.831Z,996.03
2018-06-04T11:36:46.842Z,996.03
2018-06-04T11:37:46.855Z,996.03
2018-06-04T11:39:08.034Z,996.04
2018-06-04T11:39:46.875Z,996.04
2018-06-04T11:40:46.925Z,996.02
2018-06-04T11:41:46.908Z,995.99
2018-06-04T11:42:46.926Z,996.03
2018-06-04T11:43:46.987Z,995.96
2018-06-04T11:45:07.959Z,995.95
2018-06-04T11:45:46.972Z,995.91
2018-06-04T11:46:46.992Z,995.92
2018-06-04T11:47:47.005Z,995.90
2018-06-04T11:48:47.012Z,995.84
2018-06-04T11:49:47.021Z,995.87
2018-06-04T11:51:08.209Z,995.81
2018-06-04T11:51:47.061Z,995.83
2018-06-04T11:52:47.071Z,995.81
2018-06-04T11:53:47.090Z,995.76
2018-06-04T11:54:47.106Z,995.80
2018-06-04T11:55:47.166Z,995.78
2018-06-04T11:57:08.158Z,995.77
2018-06-04T11:57:47.236Z,995.81
2018-06-04T11:58:47.231Z,995.80
2018-06-04T11:59:47.191Z,995.83
2018-06-04T12:00:47.213Z,995.77
2018-06-04T12:01:48.921Z,995.74
2018-06-04T12:03:08.254Z,995.80
2018-06-04T12:03:47.259Z,995.75
2018-06-04T12:04:47.273Z,995.78
2018-06-04T12:05:47.288Z,995.76
2018-06-04T12:06:47.316Z,995.76
2018-06-04T12:07:47.317Z,995.76
2018-06-04T12:09:08.777Z,995.77
2018-06-04T12:09:47.347Z,995.77
2018-06-04T12:10:47.357Z,995.77
2018-06-04T12:11:47.437Z,995.75
2018-06-04T12:12:47.378Z,995.72
2018-06-04T12:13:47.425Z,995.72
2018-06-04T12:15:08.667Z,995.73
2018-06-04T12:15:47.418Z,995.68
2018-06-04T12:16:47.429Z,995.66
2018-06-04T12:17:47.442Z,995.67
2018-06-04T12:18:47.454Z,995.62
2018-06-04T12:19:47.469Z,995.62
2018-06-04T12:21:08.491Z,995.63
2018-06-04T12:21:47.486Z,995.61
2018-06-04T12:22:47.497Z,995.59
2018-06-04T12:23:47.512Z,995.58
2018-06-04T12:24:47.521Z,995.63
2018-06-04T12:25:47.531Z,995.62
2018-06-04T12:27:08.581Z,995.60
2018-06-04T12:27:47.555Z,995.64
2018-06-04T12:28:47.562Z,995.59